createdAt,value
2023-01-31T00:01:57.845Z,98969.19
2023-01-31T00:04:30.921Z,98971.18
2023-01-31T00:07:03.392Z,98971.80
2023-01-31T00:09:36.370Z,98964.45
2023-01-31T00:12:09.077Z,98971.38
2023-01-31T00:14:41.461Z,98972.41
2023-01-31T00:17:13.989Z,98965.63
2023-01-31T00:19:46.374Z,98962.85
2023-01-31T00:22:19.213Z,98969.89
2023-01-31T00:24:51.733Z,98965.88
2023-01-31T00:27:24.196Z,98956.75
2023-01-31T00:29:57.333Z,98960.13
2023-01-31T00:32:29.845Z,98963.84
2023-01-31T00:35:02.330Z,98958.51
2023-01-31T00:37:35.817Z,98952.44
2023-01-31T00:40:11.574Z,98958.91
2023-01-31T00:42:44.505Z,98966.52
2023-01-31T00:45:17.044Z,98963.69
2023-01-31T00:47:49.629Z,98961.48
2023-01-31T00:50:23.109Z,98957.13
2023-01-31T00:52:55.930Z,98959.32
2023-01-31T00:55:30.217Z,98964.50
2023-01-31T00:58:02.826Z,98965.44
2023-01-31T01:00:37.392Z,98968.16
2023-01-31T01:03:10.521Z,98974.94
2023-01-31T01:05:43.355Z,98970.47
2023-01-31T01:08:16.688Z,98964.77
2023-01-31T01:10:49.757Z,98964.27
2023-01-31T05:04:44.109Z,99041.00
2023-01-31T05:07:16.717Z,99042.33
2023-01-31T05:09:49.232Z,99047.94
2023-01-31T05:12:21.676Z,99040.95
2023-01-31T05:14:54.873Z,99041.47
2023-01-31T05:17:29.729Z,99053.64
2023-01-31T05:20:02.349Z,99049.61
2023-01-31T05:22:34.947Z,99063.23
2023-01-31T05:25:07.809Z,99064.36
2023-01-31T05:27:41.212Z,99068.42
2023-01-31T05:30:14.737Z,99068.20
2023-01-31T05:32:49.934Z,99069.55
2023-01-31T05:35:23.208Z,99074.28
2023-01-31T05:37:56.779Z,99070.82
2023-01-31T05:40:29.662Z,99078.41
2023-01-31T05:43:02.253Z,99082.22
2023-01-31T05:45:35.269Z,99080.92
2023-01-31T05:48:08.176Z,99076.34
2023-01-31T05:50:41.640Z,99084.77
2023-01-31T05:53:14.192Z,99083.20
2023-01-31T05:55:46.599Z,99090.26
2023-01-31T05:58:19.306Z,99094.27
2023-01-31T06:00:54.116Z,99097.55
2023-01-31T06:03:26.775Z,99102.14
2023-01-31T06:05:59.500Z,99101.37
2023-01-31T06:08:32.219Z,99100.44
2023-01-31T06:11:05.645Z,99103.48
2023-01-31T06:13:39.129Z,99109.37
2023-01-31T06:16:12.001Z,99102.23
2023-01-31T06:18:44.572Z,99110.86
2023-01-31T06:21:17.989Z,99108.33
2023-01-31T06:23:50.512Z,99115.93
2023-01-31T06:26:23.029Z,99113.61
2023-01-31T06:28:55.838Z,99112.83
2023-01-31T06:31:29.373Z,99113.55
2023-01-31T06:34:02.280Z,99115.28
2023-01-31T06:36:34.837Z,99111.64
2023-01-31T06:39:07.656Z,99114.89
2023-01-31T06:41:40.047Z,99119.66
2023-01-31T06:44:13.302Z,99110.33
2023-01-31T06:46:45.836Z,99126.28
2023-01-31T06:49:18.488Z,99121.80
2023-01-31T06:51:51.425Z,99118.80
2023-01-31T06:54:24.137Z,99126.70
2023-01-31T06:56:56.541Z,99128.41
2023-01-31T06:59:30.287Z,99132.09
2023-01-31T07:02:02.683Z,99129.93
2023-01-31T07:04:35.284Z,99134.34
2023-01-31T07:07:07.643Z,99133.95
2023-01-31T07:09:40.162Z,99131.38
2023-01-31T07:12:13.549Z,99146.09
2023-01-31T07:14:46.170Z,99145.16
2023-01-31T07:17:20.314Z,99149.16
2023-01-31T07:19:53.539Z,99154.30
2023-01-31T07:22:26.265Z,99147.50
2023-01-31T07:24:58.774Z,99150.06
2023-01-31T07:27:32.413Z,99154.55
2023-01-31T07:30:05.233Z,99157.84
2023-01-31T07:32:37.966Z,99155.56
2023-01-31T07:35:11.264Z,99151.05
2023-01-31T07:37:43.833Z,99147.03
2023-01-31T07:40:16.925Z,99151.22
2023-01-31T07:42:50.275Z,99153.18
2023-01-31T07:45:33.224Z,99158.42
2023-01-31T07:48:00.050Z,99166.12
2023-01-31T07:50:33.224Z,99166.77
2023-01-31T07:53:05.795Z,99176.17
2023-01-31T07:55:38.272Z,99170.84
2023-01-31T07:58:11.474Z,99172.00
2023-01-31T08:01:02.829Z,99173.48
2023-01-31T08:03:35.343Z,99166.95
2023-01-31T08:06:12.691Z,99165.91
2023-01-31T08:08:45.167Z,99167.92
2023-01-31T08:11:17.683Z,99170.73
2023-01-31T08:13:50.275Z,99175.11
2023-01-31T08:16:22.871Z,99177.50
2023-01-31T08:18:55.401Z,99177.30
2023-01-31T08:21:28.109Z,99186.81
2023-01-31T08:24:00.462Z,99191.81
2023-01-31T08:26:33.457Z,99192.98
2023-01-31T08:29:05.907Z,99197.97
2023-01-31T08:31:38.591Z,99197.53
2023-01-31T08:34:11.281Z,99194.48
2023-01-31T08:36:44.468Z,99201.55
2023-01-31T08:39:17.106Z,99206.32
2023-01-31T08:41:49.872Z,99204.98
2023-01-31T08:44:22.496Z,99208.91
2023-01-31T08:46:54.847Z,99208.06
2023-01-31T08:49:29.164Z,99207.59
2023-01-31T08:52:01.927Z,99210.91
2023-01-31T08:54:34.803Z,99208.50
2023-01-31T08:57:07.173Z,99213.05
2023-01-31T08:59:39.528Z,99210.14
2023-01-31T09:02:14.579Z,99209.52
2023-01-31T09:04:47.284Z,99212.45
2023-01-31T09:07:21.306Z,99209.91
2023-01-31T09:09:54.357Z,99212.20
2023-01-31T09:12:26.947Z,99220.75
2023-01-31T09:15:00.342Z,99218.41
2023-01-31T09:17:33.450Z,99221.09
2023-01-31T09:20:08.253Z,99211.95
2023-01-31T09:22:40.656Z,99209.05
2023-01-31T09:25:13.777Z,99207.95
2023-01-31T09:27:47.157Z,99212.84
2023-01-31T09:30:20.196Z,99215.66
2023-01-31T09:32:53.278Z,99217.98
2023-01-31T09:35:26.119Z,99215.08
2023-01-31T09:37:59.780Z,99216.66
2023-01-31T09:40:34.957Z,99219.59
2023-01-31T09:43:07.585Z,99212.30
2023-01-31T09:45:42.801Z,99212.66
2023-01-31T09:48:20.950Z,99216.08
2023-01-31T09:50:58.641Z,99220.81
2023-01-31T09:53:35.095Z,99217.42
2023-01-31T09:56:21.970Z,99216.33
2023-01-31T09:59:32.155Z,99214.28
2023-01-31T10:02:28.210Z,99215.16
2023-01-31T10:05:44.845Z,99212.95
2023-01-31T10:08:37.133Z,99216.00
2023-01-31T10:11:26.946Z,99219.08
2023-01-31T13:21:50.110Z,99223.49
2023-01-31T13:24:43.103Z,99227.27
2023-01-31T13:27:39.300Z,99228.60
2023-01-31T13:30:50.751Z,99226.75
2023-01-31T13:33:39.993Z,99229.94
2023-01-31T13:36:35.252Z,99226.28
2023-01-31T13:39:15.112Z,99232.11
2023-01-31T13:41:48.319Z,99236.28
2023-01-31T13:44:21.431Z,99241.27
2023-01-31T13:47:04.090Z,99240.81
2023-01-31T13:49:40.996Z,99240.58
2023-01-31T13:52:34.899Z,99235.34
2023-01-31T13:55:15.136Z,99240.98
2023-01-31T13:58:09.520Z,99235.12
2023-01-31T14:01:19.328Z,99240.88
2023-01-31T14:04:17.823Z,99241.88
2023-01-31T14:07:08.327Z,99240.19
2023-01-31T14:09:57.552Z,99241.77
2023-01-31T14:12:35.043Z,99251.74
2023-01-31T14:15:31.257Z,99249.17
2023-01-31T14:18:05.009Z,99249.05
2023-01-31T14:20:37.453Z,99250.27
2023-01-31T14:23:32.764Z,99252.42
2023-01-31T14:26:07.060Z,99254.97
2023-01-31T14:28:44.393Z,99253.86
2023-01-31T14:31:20.006Z,99257.13
2023-01-31T14:33:54.447Z,99252.64
2023-01-31T14:36:50.209Z,99257.36
2023-01-31T14:39:49.270Z,99262.95
2023-01-31T14:42:57.292Z,99260.64
2023-01-31T14:45:46.758Z,99258.08
2023-01-31T14:48:30.126Z,99255.63
2023-01-31T14:51:53.878Z,99252.19
2023-01-31T14:55:11.988Z,99258.17
2023-01-31T14:57:46.091Z,99261.66
2023-01-31T15:00:26.491Z,99266.49
2023-01-31T15:03:11.433Z,99272.61
2023-01-31T15:05:47.770Z,99277.22
2023-01-31T15:08:28.184Z,99277.22
2023-01-31T15:11:18.291Z,99277.22
2023-01-31T15:13:54.908Z,99279.90
2023-01-31T15:16:35.316Z,99277.75
2023-01-31T15:19:23.966Z,99278.86
2023-01-31T15:21:59.857Z,99285.56
2023-01-31T15:24:48.540Z,99291.16
2023-01-31T15:27:30.591Z,99299.05
2023-01-31T15:30:15.224Z,99296.23
2023-01-31T15:33:11.044Z,99295.38
2023-01-31T15:35:49.007Z,99303.19
2023-01-31T15:38:58.283Z,99301.12
2023-01-31T15:41:43.374Z,99301.52
2023-01-31T15:44:24.933Z,99300.06
2023-01-31T15:46:58.641Z,99302.63
2023-01-31T15:49:40.361Z,99306.90
2023-01-31T15:52:33.876Z,99313.61
2023-01-31T15:55:08.048Z,99312.52
2023-01-31T15:57:44.028Z,99310.95
2023-01-31T16:00:28.089Z,99313.52
2023-01-31T16:03:01.427Z,99315.33
2023-01-31T16:05:37.456Z,99321.20
2023-01-31T16:08:24.345Z,99324.49
2023-01-31T16:10:58.262Z,99317.91
2023-01-31T16:13:31.377Z,99320.20
2023-01-31T16:16:05.937Z,99317.73
2023-01-31T16:18:39.735Z,99322.84
2023-01-31T16:21:45.583Z,99319.66
2023-01-31T16:24:20.063Z,99319.08
2023-01-31T16:27:13.436Z,99316.98
2023-01-31T16:29:53.424Z,99327.70
2023-01-31T16:32:31.865Z,99319.89
2023-01-31T16:35:27.425Z,99323.32
2023-01-31T16:38:08.188Z,99321.76
2023-01-31T16:40:54.082Z,99322.73
2023-01-31T16:43:28.814Z,99330.50
2023-01-31T16:46:09.238Z,99330.25
2023-01-31T16:48:43.847Z,99328.66
2023-01-31T16:54:34.136Z,99341.11
2023-01-31T16:57:08.689Z,99340.97
2023-01-31T16:59:44.661Z,99339.84
2023-01-31T17:02:28.335Z,99336.19
2023-01-31T17:05:23.670Z,99343.17
2023-01-31T17:07:58.537Z,99337.42
2023-01-31T17:10:34.357Z,99337.20
2023-01-31T17:13:17.435Z,99344.77
2023-01-31T17:15:54.431Z,99342.45
2023-01-31T17:18:27.353Z,99339.77
2023-01-31T17:21:00.435Z,99345.35
2023-01-31T17:23:33.316Z,99345.35
2023-01-31T17:26:06.223Z,99342.06
2023-01-31T17:28:42.754Z,99343.51
2023-01-31T17:31:19.892Z,99346.55
2023-01-31T17:33:53.329Z,99345.21
2023-01-31T17:36:25.996Z,99343.15
2023-01-31T17:38:58.411Z,99354.30
2023-01-31T17:41:31.081Z,99351.34
2023-01-31T17:44:05.534Z,99346.92
2023-01-31T17:46:38.133Z,99345.44
2023-01-31T17:49:10.666Z,99344.79
2023-01-31T17:51:43.084Z,99348.91
2023-01-31T17:54:15.617Z,99351.09
2023-01-31T17:56:47.992Z,99351.09
2023-01-31T17:59:27.099Z,99350.36
2023-01-31T18:01:55.353Z,99355.03
2023-01-31T18:04:28.099Z,99359.78
2023-01-31T18:07:00.994Z,99366.11
2023-01-31T18:09:34.403Z,99361.98
2023-01-31T18:12:07.429Z,99368.00
2023-01-31T18:14:39.945Z,99358.98
2023-01-31T18:17:13.518Z,99367.38
2023-01-31T18:19:45.983Z,99367.38
2023-01-31T18:22:18.406Z,99362.09
2023-01-31T18:24:51.087Z,99362.97
2023-01-31T18:27:23.652Z,99362.09
2023-01-31T18:29:56.341Z,99363.91
2023-01-31T18:32:29.063Z,99363.58
2023-01-31T18:35:02.252Z,99360.17
2023-01-31T18:37:34.875Z,99362.86
2023-01-31T18:40:08.340Z,99367.71
2023-01-31T18:42:41.777Z,99365.90
2023-01-31T18:45:15.236Z,99368.36
2023-01-31T18:47:47.951Z,99370.67
2023-01-31T18:50:20.580Z,99372.02
2023-01-31T18:52:53.407Z,99367.60
2023-01-31T18:55:26.559Z,99370.89
2023-01-31T18:57:58.886Z,99363.29
2023-01-31T19:00:31.882Z,99369.55
2023-01-31T19:03:04.449Z,99366.40
2023-01-31T19:05:39.023Z,99372.73
2023-01-31T19:08:11.994Z,99372.88
2023-01-31T19:10:44.465Z,99376.91
2023-01-31T19:13:17.005Z,99379.95
2023-01-31T19:15:49.602Z,99379.00
2023-01-31T19:18:22.889Z,99380.34
2023-01-31T19:20:55.294Z,99380.34
2023-01-31T19:23:27.973Z,99379.62
2023-01-31T19:26:01.279Z,99382.34
2023-01-31T19:28:35.358Z,99386.00
2023-01-31T19:31:09.653Z,99381.11
2023-01-31T19:33:42.085Z,99378.06
2023-01-31T19:36:17.779Z,99376.94
2023-01-31T19:38:50.470Z,99383.53
2023-01-31T19:41:23.468Z,99380.09
2023-01-31T19:43:57.852Z,99374.52
2023-01-31T19:46:33.360Z,99383.31
2023-01-31T19:49:06.463Z,99382.19
2023-01-31T19:51:39.473Z,99377.41
2023-01-31T19:57:02.176Z,99381.94
2023-01-31T19:59:36.535Z,99386.06
2023-01-31T20:02:11.315Z,99380.81
2023-01-31T20:04:44.237Z,99386.28
2023-01-31T20:07:16.774Z,99380.77
2023-01-31T20:09:49.189Z,99386.45
2023-01-31T20:12:22.175Z,99389.81
2023-01-31T20:14:55.204Z,99384.67
2023-01-31T20:17:27.590Z,99389.19
2023-01-31T20:20:01.566Z,99387.45
2023-01-31T20:22:36.190Z,99396.00
2023-01-31T20:25:09.760Z,99393.53
2023-01-31T20:27:42.175Z,99393.53
2023-01-31T20:30:16.814Z,99401.35
2023-01-31T20:32:50.148Z,99400.27
2023-01-31T20:35:22.917Z,99395.78
2023-01-31T20:37:56.479Z,99394.44
2023-01-31T20:40:29.207Z,99397.59
2023-01-31T20:43:01.586Z,99402.59
2023-01-31T20:45:35.554Z,99395.78
2023-01-31T20:48:08.171Z,99394.23
2023-01-31T20:50:41.270Z,99398.83
2023-01-31T20:53:21.926Z,99403.20
2023-01-31T20:56:02.036Z,99402.59
2023-01-31T20:58:38.588Z,99400.38
2023-01-31T21:01:10.344Z,99404.66
2023-01-31T21:03:42.635Z,99399.95
2023-01-31T21:06:15.773Z,99399.04
2023-01-31T21:08:48.880Z,99405.73
2023-01-31T21:11:21.485Z,99406.97
2023-01-31T21:13:53.899Z,99398.93
2023-01-31T21:16:26.766Z,99400.38
2023-01-31T21:19:00.601Z,99400.38
2023-01-31T21:21:33.583Z,99403.16
2023-01-31T21:24:06.265Z,99403.38
2023-01-31T21:26:38.748Z,99401.67
2023-01-31T21:29:11.110Z,99405.80
2023-01-31T21:31:43.960Z,99408.69
2023-01-31T21:34:16.748Z,99406.58
2023-01-31T21:36:50.224Z,99405.84
2023-01-31T21:39:22.613Z,99404.52
2023-01-31T21:42:13.321Z,99399.63
2023-01-31T21:44:47.736Z,99404.98
2023-01-31T21:47:20.967Z,99406.53
2023-01-31T21:49:53.311Z,99403.12
2023-01-31T21:52:25.761Z,99397.27
2023-01-31T21:54:58.150Z,99400.44
2023-01-31T21:57:30.786Z,99402.20
2023-01-31T22:00:03.557Z,99400.91
2023-01-31T22:02:36.360Z,99401.95
2023-01-31T22:05:09.532Z,99399.38
2023-01-31T22:07:42.108Z,99404.06
2023-01-31T22:10:14.719Z,99393.14
2023-01-31T22:12:47.268Z,99402.30
2023-01-31T22:15:19.788Z,99399.99
2023-01-31T22:17:52.205Z,99400.76
2023-01-31T22:20:24.893Z,99399.52
2023-01-31T22:22:58.172Z,99387.69
2023-01-31T22:25:30.543Z,99391.20
2023-01-31T22:28:02.895Z,99398.50
2023-01-31T22:30:35.396Z,99389.13
2023-01-31T22:33:08.207Z,99386.92
2023-01-31T22:35:41.445Z,99385.84
2023-01-31T22:38:13.859Z,99384.03
2023-01-31T22:40:47.090Z,99377.70
2023-01-31T22:43:23.558Z,99375.53
2023-01-31T22:45:58.503Z,99372.34
2023-01-31T22:48:30.693Z,99370.17
2023-01-31T22:51:25.804Z,99374.19
2023-01-31T22:53:59.796Z,99369.20
2023-01-31T22:56:33.136Z,99372.14
2023-01-31T22:59:06.790Z,99368.33
2023-01-31T23:01:39.844Z,99377.19
2023-01-31T23:04:12.812Z,99373.74
2023-01-31T23:06:45.614Z,99371.27
2023-01-31T23:09:18.096Z,99375.39
2023-01-31T23:11:50.719Z,99380.28
2023-01-31T23:14:23.448Z,99377.76
2023-01-31T23:17:14.051Z,99373.74
2023-01-31T23:19:50.123Z,99365.45
2023-01-31T23:22:23.041Z,99371.93
2023-01-31T23:24:56.434Z,99366.95
2023-01-31T23:27:29.538Z,99372.85
2023-01-31T23:30:02.367Z,99368.78
2023-01-31T23:32:35.201Z,99372.72
2023-01-31T23:35:08.034Z,99371.42
2023-01-31T23:37:41.609Z,99364.79
2023-01-31T23:40:14.297Z,99364.47
2023-01-31T23:42:46.925Z,99361.23
2023-01-31T23:45:19.239Z,99362.78
2023-01-31T23:47:52.982Z,99365.82
2023-01-31T23:50:26.048Z,99359.03
2023-01-31T23:52:58.679Z,99356.14
2023-01-31T23:55:31.390Z,99350.42
2023-01-31T23:58:04.108Z,99353.67
